Time;durP1;ratioP1;P1;durP2;ratioP2;P2;SDS_P1;SDS_P2;PMS_P1;PMS_P2;Temp;Humidity;BMP_temperature;BMP_pressure;BME280_temperature;BME280_humidity;BME280_pressure;Samples;Min_cycle;Max_cycle;Signal;HPM_P1;HPM_P2
2022/10/24 00:00:22;;;;;;;;;1.50;0.00;;;;;19.34;55.77;99898.41;4960505;28;46687;-79
2022/10/24 00:02:48;;;;;;;;;0.00;0.00;;;;;19.35;55.69;99897.41;4960183;28;46133;-77
2022/10/24 00:08:36;;;;;;;;;0.00;0.00;;;;;19.31;56.11;99907.59;4960555;28;45712;-76
2022/10/24 00:11:08;;;;;;;;;0.00;0.00;;;;;19.31;55.97;99896.13;4960458;28;45589;-76
2022/10/24 00:13:33;;;;;;;;;1.75;0.50;;;;;19.29;55.77;99897.13;4960511;28;45936;-77
2022/10/24 00:16:00;;;;;;;;;0.75;0.00;;;;;19.24;56.02;99880.09;4960561;28;45768;-77
2022/10/24 00:18:25;;;;;;;;;0.00;0.00;;;;;19.28;55.99;99887.50;4960077;28;45905;-79
2022/10/24 00:20:50;;;;;;;;;1.00;0.00;;;;;19.29;55.98;99888.34;4960126;28;45846;-77
2022/10/24 00:23:16;;;;;;;;;1.75;0.75;;;;;19.27;56.23;99891.16;4956185;28;45625;-77
2022/10/24 00:25:41;;;;;;;;;1.00;0.50;;;;;19.26;56.10;99900.19;4957149;28;45789;-77
2022/10/24 00:28:07;;;;;;;;;1.00;0.00;;;;;19.26;56.14;99883.41;4957084;28;45637;-77
2022/10/24 00:30:32;;;;;;;;;0.75;0.75;;;;;19.20;56.42;99882.31;4956944;28;46428;-78
2022/10/24 00:32:58;;;;;;;;;0.00;0.00;;;;;19.22;56.00;99887.41;4957130;28;45695;-78
2022/10/24 00:38:44;;;;;;;;;2.00;0.00;;;;;19.12;56.41;99879.72;4957032;28;46054;-74
2022/10/24 00:41:16;;;;;;;;;0.00;0.00;;;;;19.17;56.78;99908.38;4956729;28;46366;-77
2022/10/24 00:43:41;;;;;;;;;0.00;0.00;;;;;19.14;56.73;99896.31;4956707;28;46375;-78
2022/10/24 00:46:07;;;;;;;;;0.00;0.00;;;;;19.12;56.60;99893.00;4956797;28;45672;-79
2022/10/24 00:48:35;;;;;;;;;1.00;1.00;;;;;18.99;56.29;99860.97;4956668;28;45482;-78
2022/10/24 00:51:09;;;;;;;;;0.50;0.00;;;;;19.08;56.78;99899.69;4956582;28;46630;-77
2022/10/24 00:53:40;;;;;;;;;1.50;0.00;;;;;19.06;56.65;99884.94;4956536;28;46431;-78
2022/10/24 00:56:07;;;;;;;;;0.50;0.50;;;;;19.02;56.92;99895.09;4956617;28;45610;-77
2022/10/24 00:58:34;;;;;;;;;1.50;1.00;;;;;19.01;56.54;99904.06;4956464;28;45483;-77
2022/10/24 01:01:00;;;;;;;;;1.00;0.00;;;;;19.00;56.56;99912.22;4955977;28;45702;-78
2022/10/24 01:03:26;;;;;;;;;1.00;0.00;;;;;18.93;57.02;99908.63;4956123;28;46132;-77
2022/10/24 01:09:55;;;;;;;;;0.75;0.00;;;;;18.92;57.26;99915.78;4956618;28;45520;-77
2022/10/24 01:12:42;;;;;;;;;1.50;0.25;;;;;18.84;57.53;99921.13;4956549;28;46928;-78
2022/10/24 01:15:37;;;;;;;;;1.25;0.00;;;;;18.84;57.16;99939.72;4956389;28;46540;-77
2022/10/24 01:18:22;;;;;;;;;2.00;0.00;;;;;18.77;57.66;99938.78;4877659;29;45799;-77
2022/10/24 01:21:15;;;;;;;;;0.00;0.00;;;;;18.77;57.74;99946.75;4877864;29;45813;-79
2022/10/24 01:24:20;;;;;;;;;3.00;0.00;;;;;18.74;57.90;99957.72;4877655;29;45793;-78
2022/10/24 01:27:00;;;;;;;;;0.25;0.00;;;;;18.72;58.17;99968.53;4877147;29;47095;-78
2022/10/24 01:30:02;;;;;;;;;1.00;0.25;;;;;18.70;58.10;99973.19;4877900;29;45732;-78
2022/10/24 01:32:40;;;;;;;;;0.50;0.00;;;;;18.65;58.39;99953.47;4877587;29;45751;-80
2022/10/24 01:38:35;;;;;;;;;0.00;0.00;;;;;18.66;58.52;99963.94;4877395;29;45998;-79
2022/10/24 01:41:06;;;;;;;;;1.00;0.00;;;;;18.63;58.56;99969.56;4877691;29;45840;-77
2022/10/24 01:43:38;;;;;;;;;0.25;0.00;;;;;18.63;58.86;99966.09;4877745;29;45521;-78
2022/10/24 01:46:10;;;;;;;;;0.75;0.00;;;;;18.58;58.72;99952.53;4877198;29;46680;-78
2022/10/24 01:48:44;;;;;;;;;1.75;0.00;;;;;18.58;58.67;99953.34;4877246;29;47213;-79
2022/10/24 01:54:32;;;;;;;;;1.00;0.00;;;;;18.55;58.79;99964.34;4895513;28;45770;-76
2022/10/24 01:56:58;;;;;;;;;2.75;1.00;;;;;18.47;59.33;99951.06;4936456;28;46715;-78
2022/10/24 01:59:29;;;;;;;;;0.50;0.00;;;;;18.53;58.72;99947.72;4936549;28;45928;-78
2022/10/24 02:02:03;;;;;;;;;1.75;0.25;;;;;18.53;59.12;99952.19;4936620;28;45628;-77
2022/10/24 02:04:31;;;;;;;;;1.50;0.75;;;;;18.52;59.30;99958.50;4936581;28;45575;-80
2022/10/24 02:07:02;;;;;;;;;3.00;1.00;;;;;18.51;58.83;99952.41;4935587;28;46580;-77
2022/10/24 02:09:29;;;;;;;;;0.25;0.00;;;;;18.51;59.00;99963.00;4936646;28;45701;-78
2022/10/24 02:11:57;;;;;;;;;2.75;0.00;;;;;18.45;59.30;99945.97;4936161;28;45545;-79
2022/10/24 02:14:54;;;;;;;;;1.25;0.00;;;;;18.46;59.32;99955.53;4936555;28;45773;-79
2022/10/24 02:17:19;;;;;;;;;2.00;0.00;;;;;18.44;59.11;99949.63;4924227;28;46579;-79
2022/10/24 02:19:46;;;;;;;;;1.00;0.75;;;;;18.42;59.68;99935.69;4936263;28;46422;-79
2022/10/24 02:22:56;;;;;;;;;0.00;0.00;;;;;18.38;59.16;99925.59;4936347;28;45735;-79
2022/10/24 02:25:30;;;;;;;;;0.00;0.00;;;;;18.37;59.73;99918.66;4936153;28;45517;-80
2022/10/24 02:28:09;;;;;;;;;0.00;0.00;;;;;18.35;59.78;99912.72;4944730;28;47871;-79
2022/10/24 02:30:41;;;;;;;;;0.00;0.00;;;;;18.41;59.98;99927.91;4955321;28;46614;-80
2022/10/24 02:33:08;;;;;;;;;0.00;0.00;;;;;18.33;59.63;99907.56;4955670;28;45611;-79
2022/10/24 02:35:35;;;;;;;;;0.00;0.00;;;;;18.40;59.63;99926.28;4955328;28;45744;-78
2022/10/24 02:38:07;;;;;;;;;3.00;0.00;;;;;18.34;60.01;99911.88;4955294;28;47005;-79
2022/10/24 02:40:34;;;;;;;;;3.00;1.00;;;;;18.33;59.91;99910.22;4955405;28;46602;-77
2022/10/24 02:43:02;;;;;;;;;1.25;1.00;;;;;18.31;60.19;99891.00;4954975;28;45667;-80
2022/10/24 02:45:28;;;;;;;;;0.00;0.00;;;;;18.32;59.75;99908.56;4953772;28;45728;-80
2022/10/24 02:47:59;;;;;;;;;1.00;0.00;;;;;18.32;59.85;99905.09;4954706;28;47377;-80
2022/10/24 02:50:26;;;;;;;;;0.50;0.00;;;;;18.31;60.45;99908.75;4953614;28;48520;-79
2022/10/24 02:52:51;;;;;;;;;1.00;0.00;;;;;18.29;59.91;99893.03;4954666;28;45704;-78
2022/10/24 02:55:16;;;;;;;;;2.00;1.00;;;;;18.27;60.30;99895.00;4954987;28;45648;-78
2022/10/24 02:57:42;;;;;;;;;1.00;0.00;;;;;18.20;60.60;99888.75;4954752;28;46581;-79
2022/10/24 03:00:08;;;;;;;;;1.25;0.00;;;;;18.22;60.51;99896.53;4954847;28;46190;-76
2022/10/24 03:02:33;;;;;;;;;3.00;0.00;;;;;18.17;60.36;99885.63;4954491;28;45661;-79
2022/10/24 03:04:59;;;;;;;;;1.00;0.00;;;;;18.15;60.03;99885.81;4954983;28;45803;-79
2022/10/24 03:10:45;;;;;;;;;1.00;1.00;;;;;18.16;60.64;99902.53;4954643;28;45998;-80
2022/10/24 03:13:11;;;;;;;;;2.25;0.00;;;;;18.16;60.88;99903.38;4954818;28;45621;-78
2022/10/24 03:15:36;;;;;;;;;0.00;0.00;;;;;18.10;60.69;99919.97;4954619;28;45941;-78
2022/10/24 03:18:02;;;;;;;;;1.25;0.00;;;;;18.07;61.00;99922.97;4954358;28;47196;-77
2022/10/24 03:20:27;;;;;;;;;4.00;1.00;;;;;18.08;60.82;99926.47;4954412;28;45761;-79
2022/10/24 03:22:52;;;;;;;;;1.00;0.00;;;;;18.05;60.77;99930.28;4954306;28;45642;-78
2022/10/24 03:25:19;;;;;;;;;2.00;0.50;;;;;18.02;61.14;99934.13;4954240;28;45789;-79
2022/10/24 03:27:45;;;;;;;;;1.75;1.00;;;;;18.01;61.18;99923.69;4954184;28;45765;-80
2022/10/24 03:30:11;;;;;;;;;1.25;0.75;;;;;18.00;60.99;99936.09;4954595;28;46390;-80
2022/10/24 03:32:36;;;;;;;;;2.25;1.00;;;;;17.99;61.44;99917.72;4954631;28;45502;-79
2022/10/24 03:35:02;;;;;;;;;1.75;0.50;;;;;17.95;61.16;99932.31;4954112;28;45691;-79
2022/10/24 03:40:50;;;;;;;;;1.00;0.00;;;;;17.95;61.64;99946.41;4954160;28;45674;-80
2022/10/24 03:43:16;;;;;;;;;2.50;1.25;;;;;17.94;61.36;99950.03;4954434;28;45586;-78
2022/10/24 03:45:42;;;;;;;;;0.50;0.00;;;;;17.90;61.48;99947.91;4954503;28;45554;-77
2022/10/24 03:48:07;;;;;;;;;1.75;0.25;;;;;17.91;61.87;99942.44;4968997;28;48621;-79
2022/10/24 03:50:33;;;;;;;;;1.00;0.00;;;;;17.85;62.00;99948.44;4954327;28;46900;-77
2022/10/24 03:56:20;;;;;;;;;3.00;1.00;;;;;17.80;61.86;99942.81;4954910;28;45524;-78
2022/10/24 03:58:46;;;;;;;;;4.00;1.00;;;;;17.83;62.27;99952.25;4957460;28;47735;-79
2022/10/24 04:01:16;;;;;;;;;2.00;1.00;;;;;17.83;61.72;99968.13;4957424;28;45625;-79
2022/10/24 04:03:45;;;;;;;;;2.00;1.50;;;;;17.79;61.94;99954.41;4939829;28;45605;-79
2022/10/24 04:06:11;;;;;;;;;3.00;1.00;;;;;17.80;61.94;99963.19;4951196;28;45562;-78
2022/10/24 04:08:36;;;;;;;;;2.00;1.00;;;;;17.81;62.42;99978.09;4957232;28;47215;-78
2022/10/24 04:11:02;;;;;;;;;2.00;1.75;;;;;17.78;62.15;99966.00;4957548;28;46606;-80
2022/10/24 04:13:28;;;;;;;;;2.00;1.00;;;;;17.76;62.54;99972.50;4957488;28;45559;-79
2022/10/24 04:15:53;;;;;;;;;3.00;1.00;;;;;17.76;62.66;99983.09;4957406;28;45549;-79
2022/10/24 04:18:18;;;;;;;;;2.00;0.00;;;;;17.72;62.76;99982.59;4957455;28;45617;-79
2022/10/24 04:20:44;;;;;;;;;2.50;1.00;;;;;17.74;62.75;99996.50;4957368;28;45577;-79
2022/10/24 04:26:31;;;;;;;;;2.50;1.00;;;;;17.73;63.00;99996.66;4957249;28;45586;-81
2022/10/24 04:28:56;;;;;;;;;2.50;1.00;;;;;17.70;62.30;99997.84;4956805;28;46396;-79
2022/10/24 04:31:21;;;;;;;;;1.75;1.00;;;;;17.69;62.32;100014.72;4957054;28;45532;-79
2022/10/24 04:33:47;;;;;;;;;3.00;1.00;;;;;17.57;62.12;100000.97;4957255;28;45524;-79
2022/10/24 04:36:12;;;;;;;;;4.25;2.00;;;;;17.68;62.37;100017.53;4957019;28;45613;-79
2022/10/24 04:38:37;;;;;;;;;0.75;0.00;;;;;17.66;62.38;100019.53;4957010;28;45490;-77
2022/10/24 04:41:03;;;;;;;;;1.00;1.00;;;;;17.65;62.72;100021.38;4956971;28;45590;-81
2022/10/24 04:43:28;;;;;;;;;4.00;1.25;;;;;17.58;62.89;100017.69;4957043;28;45527;-78
2022/10/24 04:45:54;;;;;;;;;2.00;0.00;;;;;17.53;63.02;100023.50;4957046;28;45499;-78
2022/10/24 04:48:19;;;;;;;;;2.00;1.00;;;;;17.58;63.20;100031.78;4956490;28;45979;-80
2022/10/24 04:50:46;;;;;;;;;2.00;1.50;;;;;17.61;62.63;100039.41;4956870;28;46281;-79
2022/10/24 04:56:33;;;;;;;;;2.75;1.25;;;;;17.55;63.26;100034.75;4956717;28;45743;-79
2022/10/24 04:58:59;;;;;;;;;2.00;1.00;;;;;17.58;62.97;100033.59;4956638;28;46901;-78
2022/10/24 05:01:25;;;;;;;;;4.75;2.00;;;;;17.57;62.81;100053.13;4956300;28;46906;-78
2022/10/24 05:03:50;;;;;;;;;6.00;1.50;;;;;17.56;62.96;100056.78;4956176;28;45826;-78
2022/10/24 05:06:16;;;;;;;;;1.25;1.00;;;;;17.54;63.45;100064.06;4956803;28;45652;-78
2022/10/24 05:12:03;;;;;;;;;4.00;1.25;;;;;17.43;63.13;100061.75;4956314;28;45758;-79
2022/10/24 05:14:29;;;;;;;;;1.75;0.75;;;;;17.43;63.28;100069.72;4956423;28;45739;-79
2022/10/24 05:16:54;;;;;;;;;2.00;1.00;;;;;17.45;63.67;100081.78;4956164;28;45856;-80
2022/10/24 05:19:19;;;;;;;;;2.00;0.25;;;;;17.42;63.76;100082.13;4956504;28;45653;-78
2022/10/24 05:21:45;;;;;;;;;2.00;1.00;;;;;17.35;63.79;100067.88;4956279;28;46409;-80
2022/10/24 05:24:10;;;;;;;;;3.25;1.00;;;;;17.38;63.49;100074.69;4956310;28;45816;-78
2022/10/24 05:26:36;;;;;;;;;2.75;1.00;;;;;17.40;63.49;100080.63;4956291;28;45890;-77
2022/10/24 05:29:01;;;;;;;;;2.50;1.00;;;;;17.41;63.71;100087.56;4958283;28;46225;-90
2022/10/24 05:31:26;;;;;;;;;2.25;1.00;;;;;17.39;63.96;100085.09;4958112;28;46285;-86
2022/10/24 05:33:52;;;;;;;;;4.75;3.00;;;;;17.38;63.97;100090.56;4958565;28;45685;-86
2022/10/24 05:36:17;;;;;;;;;1.75;1.00;;;;;17.45;63.64;100096.84;4957969;28;45901;-85
2022/10/24 05:42:04;;;;;;;;;2.50;1.50;;;;;17.48;64.48;100101.81;4956875;28;46055;-83
2022/10/24 05:44:30;;;;;;;;;1.00;0.50;;;;;17.49;64.45;100104.28;4938842;28;45774;-81
2022/10/24 05:46:55;;;;;;;;;1.00;0.00;;;;;17.43;64.27;100091.72;4939525;28;45633;-81
2022/10/24 05:49:21;;;;;;;;;2.00;0.75;;;;;17.52;64.18;100108.44;4956425;28;46340;-82
2022/10/24 05:51:46;;;;;;;;;2.50;1.50;;;;;17.52;64.06;100101.31;4956971;28;45677;-82
2022/10/24 05:57:35;;;;;;;;;5.00;1.00;;;;;17.55;64.45;100106.25;4956685;28;45539;-83
2022/10/24 06:00:01;;;;;;;;;1.00;0.50;;;;;17.54;64.00;100101.16;4956467;28;47901;-83
2022/10/24 06:02:26;;;;;;;;;2.50;1.50;;;;;17.57;64.20;100114.06;4956670;28;45586;-82
2022/10/24 06:04:53;;;;;;;;;2.00;1.00;;;;;17.57;64.10;100106.94;4956136;28;45582;-79
2022/10/24 06:07:19;;;;;;;;;3.00;2.00;;;;;17.57;64.53;100106.94;4956310;28;45670;-80
2022/10/24 06:09:44;;;;;;;;;2.00;1.00;;;;;17.56;64.04;100107.09;4955457;28;46238;-80
2022/10/24 06:12:11;;;;;;;;;4.25;1.50;;;;;17.58;63.94;100108.59;4955917;28;46006;-80
2022/10/24 06:14:37;;;;;;;;;3.25;1.00;;;;;17.44;64.36;100081.94;4955822;28;45529;-81
2022/10/24 06:17:05;;;;;;;;;1.00;1.00;;;;;17.59;64.26;100112.94;4955397;28;45845;-79
2022/10/24 06:19:31;;;;;;;;;3.75;1.25;;;;;17.51;64.27;100097.00;4954599;28;46493;-79
2022/10/24 06:21:56;;;;;;;;;2.75;1.00;;;;;17.59;63.78;100105.00;4955389;28;46066;-79
2022/10/24 06:27:43;;;;;;;;;4.00;1.00;;;;;17.55;63.87;100103.63;4957017;28;45555;-79
2022/10/24 06:30:09;;;;;;;;;2.00;1.25;;;;;17.55;64.24;100108.09;4958590;28;46196;-80
2022/10/24 06:32:35;;;;;;;;;1.75;1.00;;;;;17.54;63.89;100111.75;4957851;28;45976;-81
2022/10/24 06:35:00;;;;;;;;;2.00;0.50;;;;;17.52;64.29;100117.22;4956538;28;45628;-79
2022/10/24 06:37:27;;;;;;;;;5.50;1.00;;;;;17.53;63.76;100126.00;4955362;28;45617;-79
2022/10/24 06:39:52;;;;;;;;;2.00;1.00;;;;;17.51;63.87;100136.75;4955517;28;46597;-82
2022/10/24 06:42:18;;;;;;;;;1.25;1.00;;;;;17.51;63.74;100131.44;4955490;28;45534;-79
2022/10/24 06:44:43;;;;;;;;;4.25;1.75;;;;;17.51;64.05;100143.84;4955659;28;45821;-81
2022/10/24 06:47:09;;;;;;;;;3.50;1.00;;;;;17.49;64.05;100136.06;4955647;28;45569;-80
2022/10/24 06:49:34;;;;;;;;;4.75;1.75;;;;;17.38;63.50;100135.59;4955415;28;45581;-78
2022/10/24 06:52:00;;;;;;;;;3.50;1.00;;;;;17.38;63.71;100138.22;4955153;28;45492;-78
2022/10/24 06:57:47;;;;;;;;;3.75;1.00;;;;;17.42;63.77;100142.19;4954817;28;45681;-80
2022/10/24 07:00:13;;;;;;;;;5.00;1.00;;;;;17.42;64.17;100145.69;4954985;28;47669;-79
2022/10/24 07:02:38;;;;;;;;;3.75;2.25;;;;;17.30;64.13;100125.81;4955439;28;46971;-81
2022/10/24 07:05:07;;;;;;;;;1.75;1.00;;;;;17.42;63.96;100150.16;4955247;28;45667;-79
2022/10/24 07:07:33;;;;;;;;;4.50;1.50;;;;;17.41;63.66;100156.44;4955294;28;45611;-81
2022/10/24 07:13:20;;;;;;;;;2.75;1.75;;;;;17.40;64.28;100166.19;4954690;28;45557;-78
2022/10/24 07:15:45;;;;;;;;;3.25;2.00;;;;;17.34;64.08;100158.91;4954643;28;45623;-81
2022/10/24 07:18:16;;;;;;;;;2.25;1.00;;;;;17.14;63.91;100131.91;4937843;28;45607;-83
2022/10/24 07:20:41;;;;;;;;;4.00;1.00;;;;;17.39;64.00;100179.59;4969471;28;47179;-81
2022/10/24 07:23:08;;;;;;;;;3.00;1.00;;;;;17.26;64.04;100166.00;4954885;28;46092;-78
2022/10/24 07:25:33;;;;;;;;;1.00;0.00;;;;;17.41;64.00;100182.91;4953163;28;46099;-77
2022/10/24 07:28:00;;;;;;;;;3.25;2.00;;;;;17.35;64.23;100173.81;4954607;28;45774;-83
2022/10/24 07:30:26;;;;;;;;;1.50;1.00;;;;;17.45;64.43;100205.44;4955657;28;45629;-80
2022/10/24 07:32:51;;;;;;;;;3.25;2.00;;;;;17.48;64.08;100199.81;4958682;28;45696;-74
2022/10/24 07:35:16;;;;;;;;;3.50;1.25;;;;;17.47;63.84;100203.47;4958519;28;45470;-74
2022/10/24 07:37:42;;;;;;;;;5.00;3.00;;;;;17.44;63.86;100194.00;4958383;28;45836;-75
2022/10/24 07:43:28;;;;;;;;;3.00;1.00;;;;;17.50;64.36;100206.59;4957876;28;45618;-76
2022/10/24 07:45:54;;;;;;;;;1.00;1.00;;;;;17.52;63.88;100214.38;4958051;28;45639;-71
2022/10/24 07:48:19;;;;;;;;;3.00;1.75;;;;;17.52;64.26;100230.28;4958312;28;45824;-73
2022/10/24 07:50:46;;;;;;;;;4.25;2.25;;;;;17.52;63.79;100223.16;4957829;28;47446;-75
2022/10/24 07:53:12;;;;;;;;;2.25;2.00;;;;;17.56;64.04;100236.91;4957730;28;47133;-73
2022/10/24 07:55:38;;;;;;;;;2.75;1.50;;;;;17.56;64.17;100227.13;4957591;28;45470;-76
2022/10/24 07:58:04;;;;;;;;;2.75;1.00;;;;;17.55;64.03;100236.06;4958331;28;45642;-73
2022/10/24 08:00:30;;;;;;;;;2.00;1.00;;;;;17.57;63.85;100239.41;4957779;28;46483;-78
2022/10/24 08:02:55;;;;;;;;;2.00;0.25;;;;;17.57;64.44;100241.22;4957550;28;47100;-73
2022/10/24 08:05:20;;;;;;;;;1.25;1.00;;;;;17.58;64.15;100243.72;4957367;28;45758;-74
2022/10/24 08:07:47;;;;;;;;;1.00;1.00;;;;;17.60;64.01;100248.84;4957678;28;45570;-77
2022/10/24 08:13:48;;;;;;;;;2.00;1.25;;;;;17.67;64.13;100249.88;4957447;28;46054;-74
2022/10/24 08:16:16;;;;;;;;;5.50;2.00;;;;;17.69;64.66;100255.84;4957874;28;45684;-80
2022/10/24 08:18:42;;;;;;;;;1.75;1.00;;;;;17.68;64.53;100243.59;4958164;28;45515;-86
2022/10/24 08:21:10;;;;;;;;;5.00;3.00;;;;;17.77;64.14;100252.38;4957938;28;45570;-78
2022/10/24 08:23:38;;;;;;;;;2.75;1.00;;;;;17.79;63.80;100261.00;4957944;28;46542;-85
2022/10/24 08:26:08;;;;;;;;;2.00;2.00;;;;;17.81;64.12;100264.31;4957715;28;45760;-78
2022/10/24 08:28:34;;;;;;;;;4.00;2.75;;;;;17.81;63.79;100262.50;4957663;28;45743;-82
2022/10/24 08:31:06;;;;;;;;;2.00;1.75;;;;;17.83;63.87;100259.66;4957752;28;45706;-80
2022/10/24 08:33:32;;;;;;;;;3.25;2.00;;;;;17.88;64.14;100260.81;4957733;28;46075;-79
2022/10/24 08:36:04;;;;;;;;;2.00;1.00;;;;;17.90;63.71;100250.06;4957710;28;45554;-81
2022/10/24 08:38:30;;;;;;;;;4.00;2.00;;;;;17.89;63.73;100251.06;4957801;28;45555;-80
2022/10/24 08:44:33;;;;;;;;;3.00;1.00;;;;;17.96;63.62;100270.63;4958423;28;46040;-81
2022/10/24 08:47:17;;;;;;;;;2.75;2.00;;;;;17.99;63.28;100272.94;4959258;28;45609;-83
2022/10/24 08:49:52;;;;;;;;;3.00;1.25;;;;;18.01;63.71;100284.22;4940956;28;45876;-81
2022/10/24 08:52:21;;;;;;;;;3.00;1.25;;;;;18.03;63.57;100271.59;4956919;28;46552;-86
2022/10/24 08:54:46;;;;;;;;;5.25;2.00;;;;;18.00;63.30;100274.59;4957305;28;45990;-84
2022/10/24 08:57:38;;;;;;;;;2.50;1.00;;;;;18.07;63.10;100278.25;4957939;28;46205;-80
2022/10/24 09:00:17;;;;;;;;;2.75;1.50;;;;;18.02;63.20;100259.34;4954968;28;45528;-76
2022/10/24 09:02:50;;;;;;;;;3.25;2.00;;;;;18.10;63.58;100266.47;4957865;28;45685;-78
2022/10/24 09:05:26;;;;;;;;;2.00;1.50;;;;;18.13;63.68;100277.59;4938989;28;46168;-77
2022/10/24 09:08:00;;;;;;;;;2.00;1.00;;;;;18.14;63.27;100276.56;4956678;28;45613;-78
2022/10/24 09:10:48;;;;;;;;;2.00;1.75;;;;;18.13;63.58;100271.47;4956406;28;45628;-77
2022/10/24 09:13:16;;;;;;;;;3.00;2.00;;;;;18.11;63.20;100274.25;4956271;28;46605;-75
2022/10/24 09:15:44;;;;;;;;;1.75;1.50;;;;;18.08;63.74;100271.97;4956294;28;47351;-77
2022/10/24 09:18:23;;;;;;;;;5.25;2.00;;;;;18.17;63.34;100275.44;4956215;28;46029;-76
2022/10/24 09:20:50;;;;;;;;;3.50;2.00;;;;;18.18;63.26;100287.69;4956414;28;45989;-76
2022/10/24 09:23:18;;;;;;;;;5.50;1.25;;;;;18.18;63.36;100283.22;4956085;28;46371;-77
2022/10/24 09:25:48;;;;;;;;;3.25;1.00;;;;;18.18;63.32;100299.13;4956162;28;45839;-77
2022/10/24 09:28:14;;;;;;;;;2.00;1.00;;;;;18.20;63.10;100286.53;4955968;28;45850;-77
2022/10/24 09:30:40;;;;;;;;;2.00;1.00;;;;;18.22;63.29;100286.38;4962782;28;45472;-85
2022/10/24 09:33:29;;;;;;;;;4.75;2.25;;;;;18.25;63.01;100301.94;4959590;28;47191;-85
2022/10/24 09:35:58;;;;;;;;;2.00;1.00;;;;;18.26;63.36;100293.81;4961164;28;47144;-81
2022/10/24 09:38:34;;;;;;;;;3.50;1.50;;;;;18.26;63.06;100295.63;4964704;28;45590;-87
2022/10/24 09:41:04;;;;;;;;;3.00;1.00;;;;;18.27;63.25;100287.53;4962957;28;45513;-87
2022/10/24 09:43:38;;;;;;;;;2.00;1.00;;;;;18.34;63.05;100300.97;4960897;28;49010;-88
2022/10/24 09:46:13;;;;;;;;;1.75;1.00;;;;;18.37;63.00;100324.47;4963766;28;45482;-85
2022/10/24 09:49:00;;;;;;;;;3.00;2.00;;;;;18.42;63.04;100333.59;4964747;28;45663;-79
2022/10/24 09:51:36;;;;;;;;;3.00;1.25;;;;;18.42;62.89;100333.59;4964923;28;45553;-85
2022/10/24 09:54:10;;;;;;;;;1.00;1.00;;;;;18.45;62.86;100320.03;4962515;28;46505;-85
2022/10/24 09:56:40;;;;;;;;;3.00;2.00;;;;;18.41;63.34;100318.66;4963033;28;46341;-85
2022/10/24 09:59:31;;;;;;;;;1.25;1.25;;;;;18.46;62.93;100320.84;4963480;28;45735;-79
2022/10/24 10:02:09;;;;;;;;;4.25;1.75;;;;;18.55;63.51;100341.09;4964787;28;45876;-81
2022/10/24 10:04:35;;;;;;;;;3.25;1.75;;;;;18.58;63.18;100346.06;4963434;28;46571;-83
2022/10/24 10:07:11;;;;;;;;;2.00;2.00;;;;;18.60;63.01;100349.38;4963415;28;45950;-84
2022/10/24 10:13:17;;;;;;;;;3.25;2.50;;;;;18.66;62.73;100345.25;4959555;28;45519;-79
2022/10/24 10:15:42;;;;;;;;;1.25;0.00;;;;;18.70;62.38;100334.13;4963145;28;46229;-85
2022/10/24 10:18:38;;;;;;;;;2.75;2.00;;;;;18.71;62.51;100343.75;4960667;28;46182;-84
2022/10/24 10:21:16;;;;;;;;;3.00;1.50;;;;;18.73;62.59;100335.63;4960057;28;45627;-82
2022/10/24 10:23:53;;;;;;;;;2.75;2.25;;;;;18.73;62.63;100335.63;4959419;28;45443;-83
2022/10/24 10:29:40;;;;;;;;;3.00;1.00;;;;;18.82;62.73;100343.41;4956970;28;45772;-83
2022/10/24 10:32:16;;;;;;;;;4.00;2.00;;;;;18.85;62.22;100343.03;4957633;28;45739;-80
2022/10/24 10:34:46;;;;;;;;;3.00;2.00;;;;;18.85;62.36;100329.78;4958294;28;45666;-85
2022/10/24 10:37:32;;;;;;;;;2.25;1.00;;;;;18.92;62.24;100327.28;4956943;28;45950;-77
2022/10/24 10:46:28;;;;;;;;;2.50;1.50;;;;;19.12;61.53;100354.25;4956915;28;45672;-82
2022/10/24 10:48:53;;;;;;;;;1.75;1.75;;;;;19.16;61.62;100351.09;4971122;28;46686;-82
2022/10/24 10:51:27;;;;;;;;;2.50;1.75;;;;;19.20;61.41;100346.28;4956498;28;47192;-77
2022/10/24 10:54:25;;;;;;;;;2.25;1.00;;;;;19.25;61.28;100358.06;4957001;28;45597;-79
2022/10/24 10:56:59;;;;;;;;;2.00;1.50;;;;;19.30;61.30;100360.19;4956584;28;45492;-78
2022/10/24 10:59:31;;;;;;;;;3.00;1.00;;;;;19.34;61.03;100348.22;4956458;28;45630;-83
2022/10/24 11:02:27;;;;;;;;;5.50;1.50;;;;;19.42;60.80;100361.50;4970551;28;45555;-82
2022/10/24 11:05:13;;;;;;;;;3.00;1.00;;;;;19.46;60.52;100352.19;4955941;28;45792;-81
2022/10/24 11:07:59;;;;;;;;;3.25;2.00;;;;;19.52;60.29;100363.97;4954988;28;45991;-74
2022/10/24 11:13:55;;;;;;;;;0.75;0.00;;;;;19.58;60.42;100352.66;4955316;28;45680;-73
2022/10/24 11:16:27;;;;;;;;;2.75;1.00;;;;;19.57;60.23;100350.97;4955282;28;45622;-78
2022/10/24 11:18:58;;;;;;;;;1.75;1.50;;;;;19.60;59.54;100353.28;4955389;28;45654;-77
2022/10/24 11:21:26;;;;;;;;;1.00;1.00;;;;;19.56;59.82;100354.63;4955519;28;46359;-75
2022/10/24 11:23:59;;;;;;;;;3.00;1.50;;;;;19.57;59.73;100354.47;4955533;28;45843;-77
2022/10/24 11:30:16;;;;;;;;;2.25;1.00;;;;;19.54;59.96;100340.72;4955206;28;45607;-82
2022/10/24 11:33:03;;;;;;;;;0.50;0.50;;;;;19.70;59.63;100354.72;4877050;29;46535;-82
2022/10/24 11:35:32;;;;;;;;;2.00;2.00;;;;;19.75;59.46;100361.38;4876780;29;46953;-83
2022/10/24 11:38:10;;;;;;;;;2.00;0.50;;;;;19.79;59.57;100352.03;4877642;29;45883;-83
2022/10/24 11:44:05;;;;;;;;;2.00;1.75;;;;;19.87;59.79;100354.63;4876582;29;46105;-73
2022/10/24 11:46:38;;;;;;;;;4.00;2.00;;;;;19.93;59.71;100362.75;4876781;29;46032;-77
2022/10/24 11:49:33;;;;;;;;;2.25;1.75;;;;;19.99;59.57;100366.53;4877143;29;45777;-79
2022/10/24 11:52:10;;;;;;;;;1.25;1.00;;;;;20.00;59.59;100353.06;4821821;29;45881;-84
2022/10/24 11:54:47;;;;;;;;;0.75;0.75;;;;;20.01;59.56;100341.44;4821876;29;46555;-77
2022/10/24 12:00:50;;;;;;;;;1.75;1.00;;;;;19.97;59.62;100329.47;4821634;29;45720;-86
2022/10/24 12:03:34;;;;;;;;;2.00;2.00;;;;;20.00;59.66;100331.78;4823522;29;45926;-78
2022/10/24 12:06:07;;;;;;;;;1.75;1.00;;;;;20.02;59.67;100329.81;4820857;29;46439;-88
2022/10/24 12:08:56;;;;;;;;;3.50;2.00;;;;;20.06;59.52;100322.28;4822799;29;47375;-81
2022/10/24 12:11:24;;;;;;;;;4.25;2.00;;;;;20.06;59.40;100325.78;4876362;29;45749;-82
2022/10/24 12:14:20;;;;;;;;;1.50;1.00;;;;;20.07;59.22;100327.44;4876928;29;45610;-79
2022/10/24 12:17:26;;;;;;;;;2.00;2.00;;;;;20.08;59.12;100299.81;4876857;29;45652;-87
2022/10/24 12:19:52;;;;;;;;;3.00;1.00;;;;;20.08;58.96;100313.09;4880544;29;46637;-85
2022/10/24 12:22:26;;;;;;;;;2.00;1.50;;;;;20.10;58.77;100316.44;4880587;29;45616;-87
2022/10/24 12:25:07;;;;;;;;;1.75;1.75;;;;;20.07;58.81;100319.47;4881584;29;45638;-82
2022/10/24 12:27:37;;;;;;;;;1.75;1.00;;;;;19.98;58.94;100309.03;4864831;29;48667;-88
2022/10/24 12:30:09;;;;;;;;;1.25;1.00;;;;;20.03;59.00;100320.78;4956776;28;47239;-84
2022/10/24 12:32:50;;;;;;;;;2.75;1.75;;;;;20.04;59.15;100329.59;4966034;28;45698;-84
2022/10/24 12:35:29;;;;;;;;;2.75;1.50;;;;;20.03;58.98;100322.63;4961924;28;45677;-86
2022/10/24 12:37:55;;;;;;;;;3.00;1.00;;;;;20.00;58.59;100312.34;4972952;28;46722;-82
2022/10/24 12:40:54;;;;;;;;;1.25;1.00;;;;;20.02;58.53;100326.31;4960605;28;45630;-76
2022/10/24 12:43:41;;;;;;;;;2.75;1.50;;;;;19.92;58.51;100326.50;4958949;28;45469;-86
2022/10/24 12:46:18;;;;;;;;;2.75;1.00;;;;;19.94;58.46;100316.53;4957677;28;45698;-84
2022/10/24 12:48:44;;;;;;;;;1.50;1.00;;;;;19.92;58.22;100318.53;4959415;28;45945;-78
2022/10/24 12:51:30;;;;;;;;;1.75;1.00;;;;;19.90;58.40;100322.41;4958459;28;46078;-81
2022/10/24 12:54:12;;;;;;;;;2.50;1.00;;;;;19.86;58.51;100329.91;4958265;28;45778;-81
2022/10/24 13:00:00;;;;;;;;;3.00;1.75;;;;;19.89;58.28;100332.19;4958152;28;46123;-79
2022/10/24 13:02:32;;;;;;;;;2.00;1.00;;;;;19.91;58.51;100332.03;4958391;28;47071;-77
2022/10/24 13:05:19;;;;;;;;;1.75;1.00;;;;;19.91;58.49;100327.53;4944534;28;45479;-82
2022/10/24 13:07:50;;;;;;;;;3.00;1.00;;;;;19.94;58.48;100316.53;4964704;28;45647;-76
2022/10/24 13:10:49;;;;;;;;;3.00;1.00;;;;;19.96;58.63;100322.53;4961499;28;47756;-78
2022/10/24 13:16:57;;;;;;;;;2.25;1.00;;;;;19.92;59.04;100318.53;4957653;28;45682;-85
2022/10/24 13:19:25;;;;;;;;;2.00;1.25;;;;;19.95;59.09;100328.84;4958556;28;45625;-82
2022/10/24 13:21:53;;;;;;;;;3.50;2.75;;;;;19.95;59.08;100328.00;4958267;28;47636;-87
2022/10/24 13:24:33;;;;;;;;;2.75;1.00;;;;;19.96;59.17;100332.34;4958761;28;46737;-77